Flugwetter

METAR EDDW
2020/09/19 15:50 EDDW 191550Z 06011KT CAVOK 20/04 Q1019 NOSIG
TAF EDDW
2020/09/19 12:27 TAF EDDW 191100Z 1912/2012 09011KT CAVOK BECMG 1916/1918 06006KT
METAR EDDH
2020/09/19 15:50 EDDH 191550Z 07007KT CAVOK 18/07 Q1021 NOSIG
TAF EDDH
2020/09/19 12:27 TAF EDDH 191100Z 1912/2018 09010KT CAVOK BECMG 1915/1917 06005KT PROB30 TEMPO 2003/2006 2000 BCFG
METAR VRMM
2020/09/19 15:00 VRMM 191500Z 25008KT 9999 FEW018TCU BKN270 29/26 Q1009 NOSIG
TAF VRMM
2020/09/19 12:12 TAF VRMM 190500Z 1912/2018 25015KT 9999 FEW017TCU SCT120 TEMPO 1914/1920 5000 -SHRA FEW018CB

Quelle:

Bereitgestellt von den Servern der NOAA tgftp.nws.noaa.gov
Alle Angaben ohne Gewähr